sensor_id;sensor_type;location;lat;lon;timestamp;P1;durP1;ratioP1;P2;durP2;ratioP2
5454;SDS011;2750;49.050;9.250;2024-03-23T00:54:26;8.67;;;7.87;;
5454;SDS011;2750;49.050;9.250;2024-03-23T00:59:28;13.77;;;8.17;;
5454;SDS011;2750;49.050;9.250;2024-03-23T01:04:31;8.67;;;7.37;;
5454;SDS011;2750;49.050;9.250;2024-03-23T01:09:34;7.83;;;7.03;;
5454;SDS011;2750;49.050;9.250;2024-03-23T01:14:35;9.90;;;7.30;;
5454;SDS011;2750;49.050;9.250;2024-03-23T01:19:37;6.97;;;6.10;;
5454;SDS011;2750;49.050;9.250;2024-03-23T01:24:40;7.07;;;6.33;;
5454;SDS011;2750;49.050;9.250;2024-03-23T01:29:42;9.53;;;6.67;;
5454;SDS011;2750;49.050;9.250;2024-03-23T01:34:43;7.13;;;6.43;;
5454;SDS011;2750;49.050;9.250;2024-03-23T01:39:46;8.43;;;7.00;;
5454;SDS011;2750;49.050;9.250;2024-03-23T01:44:48;7.33;;;5.60;;
5454;SDS011;2750;49.050;9.250;2024-03-23T01:49:49;5.73;;;5.03;;
5454;SDS011;2750;49.050;9.250;2024-03-23T01:54:52;5.63;;;4.60;;
5454;SDS011;2750;49.050;9.250;2024-03-23T01:59:54;5.37;;;4.77;;
5454;SDS011;2750;49.050;9.250;2024-03-23T02:04:56;5.53;;;4.50;;
5454;SDS011;2750;49.050;9.250;2024-03-23T02:09:58;6.23;;;4.70;;
5454;SDS011;2750;49.050;9.250;2024-03-23T02:15:00;5.13;;;4.63;;
5454;SDS011;2750;49.050;9.250;2024-03-23T02:20:02;6.50;;;4.80;;
5454;SDS011;2750;49.050;9.250;2024-03-23T02:25:07;5.17;;;4.30;;
5454;SDS011;2750;49.050;9.250;2024-03-23T02:30:09;5.30;;;4.47;;
5454;SDS011;2750;49.050;9.250;2024-03-23T02:35:11;5.10;;;4.60;;
5454;SDS011;2750;49.050;9.250;2024-03-23T02:40:14;5.57;;;4.47;;
5454;SDS011;2750;49.050;9.250;2024-03-23T02:45:15;5.67;;;4.37;;
5454;SDS011;2750;49.050;9.250;2024-03-23T02:50:17;4.90;;;4.50;;
5454;SDS011;2750;49.050;9.250;2024-03-23T02:55:20;4.87;;;4.33;;
5454;SDS011;2750;49.050;9.250;2024-03-23T03:00:22;5.03;;;4.57;;
5454;SDS011;2750;49.050;9.250;2024-03-23T03:05:23;5.83;;;4.80;;
5454;SDS011;2750;49.050;9.250;2024-03-23T03:10:26;4.73;;;3.80;;
5454;SDS011;2750;49.050;9.250;2024-03-23T03:15:28;4.80;;;3.53;;
5454;SDS011;2750;49.050;9.250;2024-03-23T03:20:29;4.37;;;3.80;;
5454;SDS011;2750;49.050;9.250;2024-03-23T03:25:33;5.13;;;3.90;;
5454;SDS011;2750;49.050;9.250;2024-03-23T03:30:35;6.17;;;3.83;;
5454;SDS011;2750;49.050;9.250;2024-03-23T03:35:36;4.67;;;3.83;;
5454;SDS011;2750;49.050;9.250;2024-03-23T03:40:39;4.53;;;4.13;;
5454;SDS011;2750;49.050;9.250;2024-03-23T03:45:43;4.73;;;3.60;;
5454;SDS011;2750;49.050;9.250;2024-03-23T03:50:52;5.30;;;4.37;;
5454;SDS011;2750;49.050;9.250;2024-03-23T03:55:55;5.23;;;3.67;;
5454;SDS011;2750;49.050;9.250;2024-03-23T04:00:57;5.17;;;3.80;;
5454;SDS011;2750;49.050;9.250;2024-03-23T04:05:59;5.53;;;3.90;;
5454;SDS011;2750;49.050;9.250;2024-03-23T04:11:02;7.63;;;4.47;;
5454;SDS011;2750;49.050;9.250;2024-03-23T04:16:04;5.77;;;4.53;;
5454;SDS011;2750;49.050;9.250;2024-03-23T04:21:06;6.47;;;4.83;;
5454;SDS011;2750;49.050;9.250;2024-03-23T04:26:08;8.30;;;6.10;;
5454;SDS011;2750;49.050;9.250;2024-03-23T04:31:10;11.87;;;8.50;;
5454;SDS011;2750;49.050;9.250;2024-03-23T04:36:12;10.43;;;7.73;;
5454;SDS011;2750;49.050;9.250;2024-03-23T04:41:15;12.33;;;9.97;;
5454;SDS011;2750;49.050;9.250;2024-03-23T04:46:16;12.93;;;10.87;;
5454;SDS011;2750;49.050;9.250;2024-03-23T04:51:21;12.63;;;10.27;;
5454;SDS011;2750;49.050;9.250;2024-03-23T04:56:25;14.03;;;10.50;;
5454;SDS011;2750;49.050;9.250;2024-03-23T05:01:26;12.57;;;10.10;;
5454;SDS011;2750;49.050;9.250;2024-03-23T05:06:28;15.00;;;10.50;;
5454;SDS011;2750;49.050;9.250;2024-03-23T05:11:31;15.23;;;11.10;;
5454;SDS011;2750;49.050;9.250;2024-03-23T05:16:32;13.57;;;10.80;;
5454;SDS011;2750;49.050;9.250;2024-03-23T05:21:34;16.97;;;12.03;;
5454;SDS011;2750;49.050;9.250;2024-03-23T05:26:37;16.33;;;11.63;;
5454;SDS011;2750;49.050;9.250;2024-03-23T05:31:39;13.83;;;10.07;;
5454;SDS011;2750;49.050;9.250;2024-03-23T05:36:41;13.67;;;11.00;;
5454;SDS011;2750;49.050;9.250;2024-03-23T05:41:44;13.03;;;11.30;;
5454;SDS011;2750;49.050;9.250;2024-03-23T05:46:46;14.33;;;9.13;;
5454;SDS011;2750;49.050;9.250;2024-03-23T05:51:48;10.00;;;8.03;;
5454;SDS011;2750;49.050;9.250;2024-03-23T05:56:51;10.60;;;8.33;;
5454;SDS011;2750;49.050;9.250;2024-03-23T06:01:55;11.63;;;8.53;;
5454;SDS011;2750;49.050;9.250;2024-03-23T06:06:57;11.13;;;8.17;;
5454;SDS011;2750;49.050;9.250;2024-03-23T06:12:00;8.73;;;7.23;;
5454;SDS011;2750;49.050;9.250;2024-03-23T06:17:01;6.43;;;5.37;;
5454;SDS011;2750;49.050;9.250;2024-03-23T06:22:03;8.47;;;7.20;;
5454;SDS011;2750;49.050;9.250;2024-03-23T06:27:08;10.77;;;8.23;;
5454;SDS011;2750;49.050;9.250;2024-03-23T06:32:09;9.50;;;7.40;;
5454;SDS011;2750;49.050;9.250;2024-03-23T06:37:11;9.17;;;7.30;;
5454;SDS011;2750;49.050;9.250;2024-03-23T06:42:14;9.40;;;6.63;;
5454;SDS011;2750;49.050;9.250;2024-03-23T06:47:15;7.57;;;4.33;;
5454;SDS011;2750;49.050;9.250;2024-03-23T06:52:17;3.83;;;3.17;;
5454;SDS011;2750;49.050;9.250;2024-03-23T06:57:20;2.70;;;2.40;;
5454;SDS011;2750;49.050;9.250;2024-03-23T07:02:21;1.67;;;1.57;;
5454;SDS011;2750;49.050;9.250;2024-03-23T07:07:23;1.20;;;1.10;;
5454;SDS011;2750;49.050;9.250;2024-03-23T07:12:26;2.00;;;1.67;;
5454;SDS011;2750;49.050;9.250;2024-03-23T07:17:28;3.90;;;1.87;;
5454;SDS011;2750;49.050;9.250;2024-03-23T07:22:29;1.93;;;1.73;;
5454;SDS011;2750;49.050;9.250;2024-03-23T07:27:33;3.90;;;1.87;;
5454;SDS011;2750;49.050;9.250;2024-03-23T07:32:34;2.17;;;1.97;;
5454;SDS011;2750;49.050;9.250;2024-03-23T07:37:36;2.17;;;1.97;;
5454;SDS011;2750;49.050;9.250;2024-03-23T07:42:39;3.60;;;2.27;;
5454;SDS011;2750;49.050;9.250;2024-03-23T07:47:41;1.87;;;1.60;;
5454;SDS011;2750;49.050;9.250;2024-03-23T07:52:42;2.13;;;1.80;;
5454;SDS011;2750;49.050;9.250;2024-03-23T07:57:45;2.17;;;1.70;;
5454;SDS011;2750;49.050;9.250;2024-03-23T08:02:48;1.63;;;0.93;;
5454;SDS011;2750;49.050;9.250;2024-03-23T08:08:00;1.07;;;0.83;;
5454;SDS011;2750;49.050;9.250;2024-03-23T08:13:03;1.20;;;1.00;;
5454;SDS011;2750;49.050;9.250;2024-03-23T08:18:05;0.60;;;0.60;;
5454;SDS011;2750;49.050;9.250;2024-03-23T08:23:06;0.53;;;0.53;;
5454;SDS011;2750;49.050;9.250;2024-03-23T08:28:10;1.83;;;0.90;;
5454;SDS011;2750;49.050;9.250;2024-03-23T08:33:11;1.73;;;0.97;;
5454;SDS011;2750;49.050;9.250;2024-03-23T08:38:13;1.33;;;1.10;;
5454;SDS011;2750;49.050;9.250;2024-03-23T08:43:16;3.27;;;1.70;;
5454;SDS011;2750;49.050;9.250;2024-03-23T08:48:36;3.33;;;2.00;;
5454;SDS011;2750;49.050;9.250;2024-03-23T08:53:39;1.87;;;1.40;;
5454;SDS011;2750;49.050;9.250;2024-03-23T08:58:46;3.83;;;2.00;;
5454;SDS011;2750;49.050;9.250;2024-03-23T09:03:48;3.00;;;1.50;;
5454;SDS011;2750;49.050;9.250;2024-03-23T09:08:55;1.40;;;1.23;;
5454;SDS011;2750;49.050;9.250;2024-03-23T09:13:58;3.60;;;1.57;;
5454;SDS011;2750;49.050;9.250;2024-03-23T09:19:00;5.57;;;1.60;;
5454;SDS011;2750;49.050;9.250;2024-03-23T09:24:01;2.60;;;1.63;;
5454;SDS011;2750;49.050;9.250;2024-03-23T09:29:04;2.17;;;1.67;;
5454;SDS011;2750;49.050;9.250;2024-03-23T09:34:06;2.00;;;1.60;;
5454;SDS011;2750;49.050;9.250;2024-03-23T09:39:08;5.20;;;2.10;;
5454;SDS011;2750;49.050;9.250;2024-03-23T09:44:11;2.10;;;1.27;;
5454;SDS011;2750;49.050;9.250;2024-03-23T09:49:13;4.40;;;2.93;;
5454;SDS011;2750;49.050;9.250;2024-03-23T09:54:15;2.60;;;2.00;;
5454;SDS011;2750;49.050;9.250;2024-03-23T09:59:18;4.80;;;2.50;;
5454;SDS011;2750;49.050;9.250;2024-03-23T10:04:37;2.87;;;2.43;;
5454;SDS011;2750;49.050;9.250;2024-03-23T10:09:39;4.70;;;2.13;;
5454;SDS011;2750;49.050;9.250;2024-03-23T10:14:43;5.37;;;2.73;;
5454;SDS011;2750;49.050;9.250;2024-03-23T10:19:45;4.17;;;2.20;;
5454;SDS011;2750;49.050;9.250;2024-03-23T10:24:48;4.97;;;2.33;;
5454;SDS011;2750;49.050;9.250;2024-03-23T10:29:51;4.27;;;2.27;;
5454;SDS011;2750;49.050;9.250;2024-03-23T10:34:53;7.60;;;2.73;;
5454;SDS011;2750;49.050;9.250;2024-03-23T10:39:54;4.57;;;2.17;;
5454;SDS011;2750;49.050;9.250;2024-03-23T10:44:57;5.27;;;2.60;;
5454;SDS011;2750;49.050;9.250;2024-03-23T10:49:59;10.00;;;3.07;;
5454;SDS011;2750;49.050;9.250;2024-03-23T10:55:02;6.23;;;4.20;;
5454;SDS011;2750;49.050;9.250;2024-03-23T11:00:09;8.80;;;3.90;;
5454;SDS011;2750;49.050;9.250;2024-03-23T11:05:27;7.53;;;3.90;;
5454;SDS011;2750;49.050;9.250;2024-03-23T11:10:30;6.93;;;3.80;;
5454;SDS011;2750;49.050;9.250;2024-03-23T11:15:34;5.40;;;3.70;;
5454;SDS011;2750;49.050;9.250;2024-03-23T11:20:36;7.07;;;4.17;;
5454;SDS011;2750;49.050;9.250;2024-03-23T11:25:37;8.13;;;3.70;;
5454;SDS011;2750;49.050;9.250;2024-03-23T11:30:40;9.47;;;3.83;;
5454;SDS011;2750;49.050;9.250;2024-03-23T11:35:42;10.50;;;4.17;;
5454;SDS011;2750;49.050;9.250;2024-03-23T11:40:44;6.23;;;3.40;;
5454;SDS011;2750;49.050;9.250;2024-03-23T11:45:48;6.43;;;3.83;;
5454;SDS011;2750;49.050;9.250;2024-03-23T11:50:54;8.50;;;3.70;;
5454;SDS011;2750;49.050;9.250;2024-03-23T11:55:58;5.80;;;3.40;;
5454;SDS011;2750;49.050;9.250;2024-03-23T12:01:02;6.73;;;2.40;;
5454;SDS011;2750;49.050;9.250;2024-03-23T12:06:05;4.53;;;1.60;;
5454;SDS011;2750;49.050;9.250;2024-03-23T12:11:08;5.40;;;2.63;;
5454;SDS011;2750;49.050;9.250;2024-03-23T12:16:13;5.83;;;2.27;;
5454;SDS011;2750;49.050;9.250;2024-03-23T12:21:15;4.30;;;2.13;;
5454;SDS011;2750;49.050;9.250;2024-03-23T12:26:17;4.40;;;1.67;;
5454;SDS011;2750;49.050;9.250;2024-03-23T12:31:20;4.50;;;1.90;;
5454;SDS011;2750;49.050;9.250;2024-03-23T12:36:21;3.93;;;2.00;;
5454;SDS011;2750;49.050;9.250;2024-03-23T12:41:24;3.90;;;2.20;;
5454;SDS011;2750;49.050;9.250;2024-03-23T12:46:26;8.77;;;3.77;;
5454;SDS011;2750;49.050;9.250;2024-03-23T12:51:28;6.20;;;2.80;;
5454;SDS011;2750;49.050;9.250;2024-03-23T12:56:30;5.23;;;2.33;;
5454;SDS011;2750;49.050;9.250;2024-03-23T13:01:32;6.50;;;2.57;;
5454;SDS011;2750;49.050;9.250;2024-03-23T13:06:34;4.17;;;1.87;;
5454;SDS011;2750;49.050;9.250;2024-03-23T13:11:36;3.03;;;1.77;;
5454;SDS011;2750;49.050;9.250;2024-03-23T13:16:38;8.97;;;2.83;;
5454;SDS011;2750;49.050;9.250;2024-03-23T13:21:40;5.33;;;2.23;;
5454;SDS011;2750;49.050;9.250;2024-03-23T13:26:41;4.70;;;2.50;;
5454;SDS011;2750;49.050;9.250;2024-03-23T13:31:44;5.70;;;1.67;;
5454;SDS011;2750;49.050;9.250;2024-03-23T13:36:47;4.47;;;1.40;;
5454;SDS011;2750;49.050;9.250;2024-03-23T13:41:48;2.30;;;1.70;;
5454;SDS011;2750;49.050;9.250;2024-03-23T13:46:51;4.27;;;2.03;;
5454;SDS011;2750;49.050;9.250;2024-03-23T13:51:53;1.83;;;1.33;;
5454;SDS011;2750;49.050;9.250;2024-03-23T13:56:56;3.07;;;1.30;;
5454;SDS011;2750;49.050;9.250;2024-03-23T14:01:59;3.47;;;1.20;;
5454;SDS011;2750;49.050;9.250;2024-03-23T14:07:00;1.90;;;1.50;;
5454;SDS011;2750;49.050;9.250;2024-03-23T14:12:02;2.77;;;1.50;;
5454;SDS011;2750;49.050;9.250;2024-03-23T14:17:05;4.83;;;1.40;;
5454;SDS011;2750;49.050;9.250;2024-03-23T14:22:07;2.93;;;1.33;;
5454;SDS011;2750;49.050;9.250;2024-03-23T14:27:09;1.80;;;0.93;;
5454;SDS011;2750;49.050;9.250;2024-03-23T14:32:11;5.23;;;1.30;;
5454;SDS011;2750;49.050;9.250;2024-03-23T14:37:13;3.27;;;1.33;;
5454;SDS011;2750;49.050;9.250;2024-03-23T14:42:15;1.00;;;0.90;;
5454;SDS011;2750;49.050;9.250;2024-03-23T14:47:18;1.00;;;0.90;;
5454;SDS011;2750;49.050;9.250;2024-03-23T14:52:21;4.07;;;1.10;;
5454;SDS011;2750;49.050;9.250;2024-03-23T14:57:22;2.97;;;1.00;;
5454;SDS011;2750;49.050;9.250;2024-03-23T15:02:25;1.93;;;1.47;;
5454;SDS011;2750;49.050;9.250;2024-03-23T15:07:27;1.00;;;0.90;;
5454;SDS011;2750;49.050;9.250;2024-03-23T15:12:29;1.10;;;0.63;;
5454;SDS011;2750;49.050;9.250;2024-03-23T15:17:32;1.13;;;1.03;;
5454;SDS011;2750;49.050;9.250;2024-03-23T15:22:36;0.53;;;0.50;;
5454;SDS011;2750;49.050;9.250;2024-03-23T15:27:38;3.73;;;1.03;;
5454;SDS011;2750;49.050;9.250;2024-03-23T15:32:41;1.10;;;0.63;;
5454;SDS011;2750;49.050;9.250;2024-03-23T15:37:42;7.40;;;1.13;;
5454;SDS011;2750;49.050;9.250;2024-03-23T15:42:44;1.67;;;0.93;;
5454;SDS011;2750;49.050;9.250;2024-03-23T15:47:47;2.60;;;1.10;;
5454;SDS011;2750;49.050;9.250;2024-03-23T15:52:49;2.00;;;1.07;;
5454;SDS011;2750;49.050;9.250;2024-03-23T15:57:51;1.60;;;0.80;;
5454;SDS011;2750;49.050;9.250;2024-03-23T16:02:54;3.47;;;1.33;;
5454;SDS011;2750;49.050;9.250;2024-03-23T16:07:56;2.33;;;1.30;;
5454;SDS011;2750;49.050;9.250;2024-03-23T16:12:57;3.47;;;1.47;;
5454;SDS011;2750;49.050;9.250;2024-03-23T16:18:01;1.07;;;0.80;;
5454;SDS011;2750;49.050;9.250;2024-03-23T16:23:03;2.20;;;1.23;;
5454;SDS011;2750;49.050;9.250;2024-03-23T16:28:05;2.70;;;1.10;;
5454;SDS011;2750;49.050;9.250;2024-03-23T16:33:08;3.20;;;1.60;;
5454;SDS011;2750;49.050;9.250;2024-03-23T16:38:10;3.23;;;1.30;;
5454;SDS011;2750;49.050;9.250;2024-03-23T16:43:13;3.13;;;1.30;;
5454;SDS011;2750;49.050;9.250;2024-03-23T16:48:15;2.07;;;1.60;;
5454;SDS011;2750;49.050;9.250;2024-03-23T16:53:17;4.47;;;1.70;;
5454;SDS011;2750;49.050;9.250;2024-03-23T16:58:19;1.03;;;0.73;;
5454;SDS011;2750;49.050;9.250;2024-03-23T17:03:22;2.20;;;1.20;;
5454;SDS011;2750;49.050;9.250;2024-03-23T17:08:24;0.60;;;0.60;;
5454;SDS011;2750;49.050;9.250;2024-03-23T17:13:25;0.87;;;0.87;;
5454;SDS011;2750;49.050;9.250;2024-03-23T17:18:28;2.73;;;1.70;;
5454;SDS011;2750;49.050;9.250;2024-03-23T17:23:30;2.37;;;1.53;;
5454;SDS011;2750;49.050;9.250;2024-03-23T17:28:32;4.17;;;1.93;;
5454;SDS011;2750;49.050;9.250;2024-03-23T17:33:35;2.70;;;1.50;;
5454;SDS011;2750;49.050;9.250;2024-03-23T17:38:36;3.07;;;1.90;;
5454;SDS011;2750;49.050;9.250;2024-03-23T17:43:38;2.70;;;1.73;;
5454;SDS011;2750;49.050;9.250;2024-03-23T17:48:41;1.90;;;1.60;;
5454;SDS011;2750;49.050;9.250;2024-03-23T17:53:43;3.07;;;1.67;;
5454;SDS011;2750;49.050;9.250;2024-03-23T17:58:47;2.97;;;1.80;;
5454;SDS011;2750;49.050;9.250;2024-03-23T18:03:52;3.00;;;2.10;;
5454;SDS011;2750;49.050;9.250;2024-03-23T18:08:53;2.37;;;1.80;;
5454;SDS011;2750;49.050;9.250;2024-03-23T18:13:55;3.60;;;2.30;;
5454;SDS011;2750;49.050;9.250;2024-03-23T18:18:57;3.30;;;2.87;;
5454;SDS011;2750;49.050;9.250;2024-03-23T18:23:59;2.93;;;2.40;;
5454;SDS011;2750;49.050;9.250;2024-03-23T18:29:01;3.40;;;2.53;;
5454;SDS011;2750;49.050;9.250;2024-03-23T18:34:04;6.63;;;2.50;;
5454;SDS011;2750;49.050;9.250;2024-03-23T18:39:06;3.97;;;2.47;;
5454;SDS011;2750;49.050;9.250;2024-03-23T18:44:08;3.30;;;2.70;;
5454;SDS011;2750;49.050;9.250;2024-03-23T18:49:11;3.50;;;2.63;;
5454;SDS011;2750;49.050;9.250;2024-03-23T18:54:12;2.63;;;2.23;;
5454;SDS011;2750;49.050;9.250;2024-03-23T18:59:14;2.70;;;1.93;;
5454;SDS011;2750;49.050;9.250;2024-03-23T19:04:17;4.27;;;2.17;;
5454;SDS011;2750;49.050;9.250;2024-03-23T19:09:18;2.40;;;1.87;;
5454;SDS011;2750;49.050;9.250;2024-03-23T19:14:20;5.17;;;2.10;;
5454;SDS011;2750;49.050;9.250;2024-03-23T19:19:23;5.47;;;2.87;;
5454;SDS011;2750;49.050;9.250;2024-03-23T19:24:24;3.47;;;2.80;;
5454;SDS011;2750;49.050;9.250;2024-03-23T19:29:26;2.60;;;2.17;;
5454;SDS011;2750;49.050;9.250;2024-03-23T19:34:28;5.40;;;2.20;;
5454;SDS011;2750;49.050;9.250;2024-03-23T19:39:30;4.13;;;2.63;;
5454;SDS011;2750;49.050;9.250;2024-03-23T19:44:32;4.07;;;2.83;;
5454;SDS011;2750;49.050;9.250;2024-03-23T19:49:35;3.77;;;2.80;;
5454;SDS011;2750;49.050;9.250;2024-03-23T19:54:37;4.27;;;2.83;;
5454;SDS011;2750;49.050;9.250;2024-03-23T19:59:39;4.47;;;2.80;;
5454;SDS011;2750;49.050;9.250;2024-03-23T20:04:44;4.13;;;2.73;;
5454;SDS011;2750;49.050;9.250;2024-03-23T20:09:45;3.97;;;2.80;;
5454;SDS011;2750;49.050;9.250;2024-03-23T20:14:47;5.53;;;2.67;;
5454;SDS011;2750;49.050;9.250;2024-03-23T20:19:50;3.53;;;2.50;;
5454;SDS011;2750;49.050;9.250;2024-03-23T20:24:54;6.70;;;2.63;;
5454;SDS011;2750;49.050;9.250;2024-03-23T20:29:56;6.17;;;3.23;;
5454;SDS011;2750;49.050;9.250;2024-03-23T20:34:59;4.77;;;2.40;;
5454;SDS011;2750;49.050;9.250;2024-03-23T20:40:01;4.90;;;2.30;;
5454;SDS011;2750;49.050;9.250;2024-03-23T20:45:03;4.73;;;2.60;;
5454;SDS011;2750;49.050;9.250;2024-03-23T20:50:07;4.47;;;2.37;;
5454;SDS011;2750;49.050;9.250;2024-03-23T20:55:09;4.00;;;2.30;;
5454;SDS011;2750;49.050;9.250;2024-03-23T21:00:11;2.63;;;1.67;;
5454;SDS011;2750;49.050;9.250;2024-03-23T21:05:15;1.90;;;1.50;;
5454;SDS011;2750;49.050;9.250;2024-03-23T21:10:17;4.63;;;1.93;;
5454;SDS011;2750;49.050;9.250;2024-03-23T21:15:18;3.43;;;1.60;;
5454;SDS011;2750;49.050;9.250;2024-03-23T21:20:21;3.20;;;1.70;;
5454;SDS011;2750;49.050;9.250;2024-03-23T21:25:23;2.67;;;1.67;;
5454;SDS011;2750;49.050;9.250;2024-03-23T21:30:25;3.67;;;1.70;;
5454;SDS011;2750;49.050;9.250;2024-03-23T21:35:28;2.20;;;1.70;;
5454;SDS011;2750;49.050;9.250;2024-03-23T21:40:30;3.33;;;1.83;;
5454;SDS011;2750;49.050;9.250;2024-03-23T21:45:31;1.57;;;1.47;;
5454;SDS011;2750;49.050;9.250;2024-03-23T21:50:34;4.40;;;1.70;;
5454;SDS011;2750;49.050;9.250;2024-03-23T21:55:36;2.23;;;1.40;;
5454;SDS011;2750;49.050;9.250;2024-03-23T22:00:37;2.83;;;1.80;;
5454;SDS011;2750;49.050;9.250;2024-03-23T22:05:40;3.83;;;1.97;;
5454;SDS011;2750;49.050;9.250;2024-03-23T22:10:42;2.33;;;1.53;;
5454;SDS011;2750;49.050;9.250;2024-03-23T22:15:44;2.97;;;1.40;;
5454;SDS011;2750;49.050;9.250;2024-03-23T22:20:48;3.37;;;1.60;;
5454;SDS011;2750;49.050;9.250;2024-03-23T22:25:56;2.17;;;1.77;;
5454;SDS011;2750;49.050;9.250;2024-03-23T22:30:59;2.80;;;1.80;;
5454;SDS011;2750;49.050;9.250;2024-03-23T22:36:03;4.17;;;2.13;;
5454;SDS011;2750;49.050;9.250;2024-03-23T22:41:06;6.30;;;2.53;;
5454;SDS011;2750;49.050;9.250;2024-03-23T22:46:08;4.70;;;2.67;;
5454;SDS011;2750;49.050;9.250;2024-03-23T22:51:11;5.30;;;2.40;;
5454;SDS011;2750;49.050;9.250;2024-03-23T22:56:13;3.73;;;2.53;;
5454;SDS011;2750;49.050;9.250;2024-03-23T23:01:17;5.00;;;2.63;;
5454;SDS011;2750;49.050;9.250;2024-03-23T23:06:19;3.13;;;2.57;;
5454;SDS011;2750;49.050;9.250;2024-03-23T23:11:21;3.63;;;2.70;;
5454;SDS011;2750;49.050;9.250;2024-03-23T23:16:23;3.57;;;2.77;;
5454;SDS011;2750;49.050;9.250;2024-03-23T23:21:26;3.53;;;2.93;;
5454;SDS011;2750;49.050;9.250;2024-03-23T23:26:27;5.47;;;2.60;;
5454;SDS011;2750;49.050;9.250;2024-03-23T23:31:29;5.67;;;2.90;;
5454;SDS011;2750;49.050;9.250;2024-03-23T23:36:32;3.37;;;2.93;;
5454;SDS011;2750;49.050;9.250;2024-03-23T23:41:33;5.93;;;2.67;;
5454;SDS011;2750;49.050;9.250;2024-03-23T23:46:35;3.77;;;2.60;;
5454;SDS011;2750;49.050;9.250;2024-03-23T23:51:38;4.00;;;2.80;;
5454;SDS011;2750;49.050;9.250;2024-03-23T23:56:39;4.80;;;2.47;;
